Time;durP1;ratioP1;P1;durP2;ratioP2;P2;SDS_P1;SDS_P2;PMS_P1;PMS_P2;Temp;Humidity;BMP_temperature;BMP_pressure;BME280_temperature;BME280_humidity;BME280_pressure;Samples;Min_cycle;Max_cycle;Signal;HPM_P1;HPM_P2
2022/08/10 00:01:49;;;;;;;3.27;1.80;;;;;;;15.82;100.00;100077.91;5051387;28;20316;-79
2022/08/10 00:04:19;;;;;;;2.07;1.67;;;;;;;15.78;100.00;100082.16;5052270;28;20245;-79
2022/08/10 00:06:47;;;;;;;2.37;1.80;;;;;;;15.74;100.00;100086.44;5049278;28;20239;-78
2022/08/10 00:09:13;;;;;;;3.73;2.27;;;;;;;15.67;100.00;100086.59;5047623;28;20225;-79
2022/08/10 00:11:40;;;;;;;3.33;1.93;;;;;;;15.64;100.00;100084.34;5050061;28;20695;-81
2022/08/10 00:14:06;;;;;;;3.07;2.00;;;;;;;15.62;100.00;100088.38;5050115;28;20245;-77
2022/08/10 00:16:33;;;;;;;2.50;1.70;;;;;;;15.60;100.00;100090.47;5049973;28;20241;-78
2022/08/10 00:19:00;;;;;;;5.37;2.00;;;;;;;15.57;100.00;100101.78;5049883;28;20226;-78
2022/08/10 00:21:26;;;;;;;2.43;1.97;;;;;;;15.52;100.00;100097.09;5049986;28;20774;-78
2022/08/10 00:23:53;;;;;;;4.10;2.03;;;;;;;15.48;100.00;100095.91;5047425;28;20240;-78
2022/08/10 00:26:20;;;;;;;3.07;1.97;;;;;;;15.47;100.00;100088.84;5047692;28;20244;-78
2022/08/10 00:28:47;;;;;;;3.67;1.90;;;;;;;15.41;100.00;100087.09;5041692;28;20324;-78
2022/08/10 00:31:14;;;;;;;2.63;2.10;;;;;;;15.34;100.00;100091.84;5048689;28;20320;-79
2022/08/10 00:33:40;;;;;;;2.10;1.87;;;;;;;15.30;100.00;100091.47;5046658;28;20420;-78
2022/08/10 00:36:07;;;;;;;3.50;1.80;;;;;;;15.28;100.00;100090.09;5047455;28;20602;-79
2022/08/10 00:38:35;;;;;;;4.27;2.10;;;;;;;15.21;100.00;100092.91;5044519;28;20324;-78
2022/08/10 00:41:02;;;;;;;3.07;1.93;;;;;;;15.20;100.00;100090.47;5053139;28;20242;-79
2022/08/10 00:43:29;;;;;;;2.90;2.00;;;;;;;15.06;100.00;100089.91;5050435;28;20605;-79
2022/08/10 00:45:56;;;;;;;4.60;2.20;;;;;;;14.97;100.00;100089.47;5049666;28;20668;-78
2022/08/10 00:48:27;;;;;;;2.30;2.00;;;;;;;14.85;100.00;100085.13;5045331;28;21226;-79
2022/08/10 00:50:55;;;;;;;2.30;2.10;;;;;;;14.80;100.00;100088.53;5048108;28;20244;-78
2022/08/10 00:53:21;;;;;;;3.10;1.83;;;;;;;14.75;100.00;100090.28;5045523;28;20325;-79
2022/08/10 00:55:48;;;;;;;2.73;1.90;;;;;;;14.73;100.00;100092.41;5046467;28;20233;-79
2022/08/10 00:58:37;;;;;;;3.50;1.87;;;;;;;14.73;100.00;100089.72;5044252;28;20233;-78
2022/08/10 01:01:05;;;;;;;3.17;1.90;;;;;;;14.69;100.00;100089.38;5051987;28;20283;-77
2022/08/10 01:03:36;;;;;;;2.77;2.20;;;;;;;14.66;100.00;100089.81;5052172;28;20246;-79
2022/08/10 01:06:33;;;;;;;4.57;2.10;;;;;;;14.59;100.00;100094.53;5045848;28;20795;-78
2022/08/10 01:09:11;;;;;;;2.40;2.10;;;;;;;14.53;100.00;100081.97;5048750;28;20687;-79
2022/08/10 01:11:53;;;;;;;2.37;2.03;;;;;;;14.49;100.00;100083.50;5043271;28;20233;-78
2022/08/10 01:14:39;;;;;;;2.23;2.00;;;;;;;14.46;100.00;100081.28;5046592;28;20302;-79
2022/08/10 01:17:14;;;;;;;2.80;2.10;;;;;;;14.43;100.00;100079.84;5044248;28;20224;-78
2022/08/10 01:19:46;;;;;;;4.93;2.40;;;;;;;14.41;100.00;100083.84;5048420;28;20751;-79
2022/08/10 01:22:25;;;;;;;2.43;1.93;;;;;;;14.34;100.00;100080.41;5043799;28;20222;-80
2022/08/10 01:25:10;;;;;;;2.90;1.90;;;;;;;14.32;100.00;100075.25;5047265;28;20590;-78
2022/08/10 01:27:51;;;;;;;4.07;2.20;;;;;;;14.27;100.00;100079.72;5049057;28;20249;-79
2022/08/10 01:30:19;;;;;;;3.00;2.00;;;;;;;14.24;100.00;100080.16;5049731;28;20248;-79
2022/08/10 01:32:54;;;;;;;2.50;2.20;;;;;;;14.20;100.00;100073.59;5050344;28;20228;-78
2022/08/10 01:35:52;;;;;;;3.00;2.00;;;;;;;14.17;100.00;100068.66;5036530;28;20241;-79
2022/08/10 01:38:20;;;;;;;2.80;2.10;;;;;;;14.16;100.00;100073.25;5047256;28;20245;-78
2022/08/10 01:41:19;;;;;;;2.30;2.10;;;;;;;14.10;100.00;100074.97;5051414;28;20605;-78
2022/08/10 01:44:02;;;;;;;3.27;2.10;;;;;;;14.07;100.00;100072.75;5052542;28;20251;-78
2022/08/10 01:46:31;;;;;;;4.07;2.00;;;;;;;14.01;100.00;100078.25;5052661;28;20230;-78
2022/08/10 01:48:59;;;;;;;3.93;2.20;;;;;;;13.97;100.00;100082.44;5054442;28;20225;-79
2022/08/10 01:51:38;;;;;;;4.27;2.00;;;;;;;13.94;100.00;100078.34;5049825;28;20638;-78
2022/08/10 01:54:07;;;;;;;3.97;2.20;;;;;;;13.90;100.00;100085.25;5036538;28;20280;-79
2022/08/10 01:56:41;;;;;;;2.20;2.00;;;;;;;13.88;100.00;100090.03;5055519;28;20275;-78
2022/08/10 01:59:13;;;;;;;2.13;1.93;;;;;;;13.88;100.00;100092.75;5055943;28;20229;-79
2022/08/10 02:01:43;;;;;;;2.70;2.10;;;;;;;13.86;100.00;100094.00;5059913;28;20241;-78
2022/08/10 02:04:12;;;;;;;3.50;2.10;;;;;;;13.82;100.00;100088.25;5056164;28;20319;-78
2022/08/10 02:06:42;;;;;;;2.60;2.07;;;;;;;13.77;100.00;100090.81;5058489;28;20308;-78
2022/08/10 02:09:12;;;;;;;2.53;2.10;;;;;;;13.78;100.00;100095.16;5057186;28;20304;-79
2022/08/10 02:11:39;;;;;;;3.40;2.20;;;;;;;13.77;100.00;100093.50;5052419;28;20229;-78
2022/08/10 02:14:30;;;;;;;3.33;2.20;;;;;;;13.74;100.00;100085.91;5058562;28;20236;-78
2022/08/10 02:17:02;;;;;;;2.20;2.00;;;;;;;13.74;100.00;100090.47;5052426;28;20244;-79
2022/08/10 02:19:32;;;;;;;2.77;2.13;;;;;;;13.70;100.00;100095.50;5056496;28;20229;-78
2022/08/10 02:21:59;;;;;;;2.77;2.40;;;;;;;13.68;100.00;100100.28;5055220;28;20236;-78
2022/08/10 02:24:46;;;;;;;2.70;1.97;;;;;;;13.62;100.00;100091.22;5052847;28;20237;-79
2022/08/10 02:27:14;;;;;;;3.83;2.10;;;;;;;13.59;100.00;100093.56;5054033;28;20224;-79
2022/08/10 02:29:41;;;;;;;4.03;2.20;;;;;;;13.60;100.00;100103.28;5055247;28;20655;-78
2022/08/10 02:32:10;;;;;;;2.17;1.90;;;;;;;13.55;100.00;100098.59;5056233;28;20317;-78
2022/08/10 02:34:38;;;;;;;2.20;2.00;;;;;;;13.52;100.00;100100.91;5053982;28;20237;-78
2022/08/10 02:37:07;;;;;;;4.10;2.30;;;;;;;13.51;100.00;100104.66;5054095;28;20233;-78
2022/08/10 02:39:39;;;;;;;1.90;1.80;;;;;;;13.45;100.00;100108.25;5029541;28;20233;-79
2022/08/10 02:42:18;;;;;;;2.50;2.27;;;;;;;13.45;100.00;100117.13;5051967;28;20237;-78
2022/08/10 02:45:12;;;;;;;2.77;2.13;;;;;;;13.42;100.00;100111.41;5055669;28;20228;-78
2022/08/10 02:48:00;;;;;;;3.00;2.20;;;;;;;13.37;100.00;100114.75;5054914;28;20253;-78
2022/08/10 02:50:34;;;;;;;4.27;2.27;;;;;;;13.37;100.00;100116.63;5052668;28;20240;-78
2022/08/10 02:53:04;;;;;;;2.90;2.30;;;;;;;13.33;100.00;100113.56;5052638;28;20269;-78
2022/08/10 02:55:45;;;;;;;3.23;2.20;;;;;;;13.30;100.00;100122.06;5052708;28;20312;-78
2022/08/10 02:58:22;;;;;;;3.57;2.20;;;;;;;13.27;100.00;100116.34;5053544;28;20230;-78
2022/08/10 03:00:53;;;;;;;2.63;2.17;;;;;;;13.25;100.00;100118.44;5032964;28;20283;-79
2022/08/10 03:03:25;;;;;;;2.30;2.10;;;;;;;13.20;100.00;100111.84;5052533;28;20230;-78
2022/08/10 03:05:56;;;;;;;3.33;2.13;;;;;;;13.20;100.00;100119.91;5052573;28;20236;-78
2022/08/10 03:08:26;;;;;;;2.90;2.20;;;;;;;13.18;100.00;100115.81;5053435;28;20694;-78
2022/08/10 03:10:54;;;;;;;3.23;2.17;;;;;;;13.17;100.00;100116.84;5052529;28;20225;-79
2022/08/10 03:13:21;;;;;;;2.47;2.27;;;;;;;13.17;100.00;100117.69;5053066;28;20320;-79
2022/08/10 03:15:49;;;;;;;2.30;2.10;;;;;;;13.11;100.00;100107.81;5053529;28;20221;-79
2022/08/10 03:18:17;;;;;;;3.30;2.27;;;;;;;13.12;100.00;100114.00;5052730;28;20324;-79
2022/08/10 03:20:45;;;;;;;5.13;3.17;;;;;;;13.09;100.00;100117.97;5053003;28;20259;-78
2022/08/10 03:23:23;;;;;;;2.87;2.57;;;;;;;13.11;100.00;100120.47;5052754;28;20761;-79
2022/08/10 03:25:51;;;;;;;4.20;2.47;;;;;;;13.08;100.00;100123.56;5054610;28;20317;-80
2022/08/10 03:28:28;;;;;;;6.37;3.30;;;;;;;13.01;100.00;100123.66;5052804;28;20258;-78
2022/08/10 03:30:56;;;;;;;4.63;2.60;;;;;;;13.05;100.00;100127.53;5053296;28;20235;-78
2022/08/10 03:33:25;;;;;;;3.60;2.37;;;;;;;13.05;100.00;100121.31;5054004;28;20288;-78
2022/08/10 03:35:52;;;;;;;2.20;2.10;;;;;;;13.04;100.00;100130.44;5036856;28;20237;-78
2022/08/10 03:38:44;;;;;;;6.73;2.53;;;;;;;13.07;100.00;100133.50;5054212;28;20259;-79
2022/08/10 03:41:12;;;;;;;3.83;2.30;;;;;;;13.05;100.00;100140.97;5054001;28;20236;-79
2022/08/10 03:43:44;;;;;;;2.40;2.20;;;;;;;13.02;100.00;100138.72;5052787;28;20656;-79
2022/08/10 03:46:12;;;;;;;3.83;2.60;;;;;;;13.01;100.00;100139.78;5052361;28;20301;-78
2022/08/10 03:48:40;;;;;;;3.57;2.17;;;;;;;13.02;100.00;100140.56;5052916;28;20235;-78
2022/08/10 03:51:16;;;;;;;3.53;2.30;;;;;;;13.03;100.00;100142.22;5030437;28;20235;-78
2022/08/10 03:53:44;;;;;;;2.47;2.27;;;;;;;13.04;100.00;100147.41;5052322;28;20703;-79
2022/08/10 03:56:31;;;;;;;3.53;2.43;;;;;;;13.05;100.00;100154.44;5052549;28;20711;-79
2022/08/10 03:58:59;;;;;;;3.37;2.33;;;;;;;13.07;100.00;100152.31;5036346;28;20313;-79
2022/08/10 04:01:27;;;;;;;4.07;2.40;;;;;;;13.09;100.00;100158.31;5053677;28;20240;-81
2022/08/10 04:04:14;;;;;;;2.73;2.30;;;;;;;13.12;100.00;100155.19;5032148;28;20642;-79
2022/08/10 04:06:51;;;;;;;2.90;2.60;;;;;;;13.18;100.00;100161.56;5046746;28;20303;-78
2022/08/10 04:09:22;;;;;;;3.67;2.80;;;;;;;13.26;100.00;100157.75;5036597;28;20711;-78
2022/08/10 04:11:49;;;;;;;3.33;2.37;;;;;;;13.32;100.00;100154.97;5052496;28;20320;-79
2022/08/10 04:14:15;;;;;;;5.27;2.83;;;;;;;13.35;100.00;100159.91;5052947;28;20319;-78
2022/08/10 04:17:02;;;;;;;3.67;2.80;;;;;;;13.43;100.00;100167.69;5053401;28;20275;-78
2022/08/10 04:19:36;;;;;;;3.20;2.50;;;;;;;13.47;100.00;100165.38;5053170;28;20233;-79
2022/08/10 04:22:07;;;;;;;2.60;2.40;;;;;;;13.54;100.00;100166.94;5052650;28;20240;-78
2022/08/10 04:24:35;;;;;;;3.77;2.60;;;;;;;13.66;100.00;100169.69;5052519;28;20639;-78
2022/08/10 04:27:02;;;;;;;2.70;2.50;;;;;;;13.75;100.00;100173.72;5051915;28;20671;-78
2022/08/10 04:29:29;;;;;;;3.37;2.50;;;;;;;13.81;100.00;100175.47;5052560;28;20704;-78
2022/08/10 04:31:55;;;;;;;3.73;2.97;;;;;;;13.87;100.00;100176.44;5034806;28;20257;-78
2022/08/10 04:34:23;;;;;;;3.17;2.40;;;;;;;13.92;100.00;100174.72;5051812;28;20229;-79
2022/08/10 04:36:50;;;;;;;2.60;2.33;;;;;;;13.96;100.00;100177.78;5051814;28;20423;-79
2022/08/10 04:39:17;;;;;;;3.13;2.53;;;;;;;13.97;100.00;100172.16;5052180;28;20320;-80
2022/08/10 04:41:44;;;;;;;2.50;2.23;;;;;;;14.01;100.00;100170.66;5052899;28;20716;-78
2022/08/10 04:44:13;;;;;;;2.60;2.40;;;;;;;14.07;100.00;100172.44;5050049;28;20364;-79
2022/08/10 04:46:40;;;;;;;4.03;2.20;;;;;;;14.14;100.00;100176.94;5050150;28;20320;-78
2022/08/10 04:49:25;;;;;;;4.03;2.37;;;;;;;14.21;100.00;100175.78;5053388;28;20223;-79
2022/08/10 04:52:12;;;;;;;3.43;2.37;;;;;;;14.32;100.00;100179.56;5048073;28;20234;-79
2022/08/10 04:54:39;;;;;;;2.83;2.60;;;;;;;14.47;100.00;100174.56;5049803;28;20233;-79
2022/08/10 04:57:07;;;;;;;3.77;2.60;;;;;;;14.72;100.00;100177.06;5033401;28;20367;-80
2022/08/10 04:59:34;;;;;;;5.20;2.70;;;;;;;14.82;100.00;100186.22;5051173;28;20716;-80
2022/08/10 05:02:00;;;;;;;3.33;2.70;;;;;;;14.94;100.00;100184.34;5046623;28;20237;-79
2022/08/10 05:04:48;;;;;;;4.17;2.63;;;;;;;15.13;100.00;100187.75;5048289;28;20244;-79
2022/08/10 05:07:15;;;;;;;3.77;2.77;;;;;;;15.26;100.00;100189.38;5048744;28;20840;-78
2022/08/10 05:09:45;;;;;;;3.77;2.60;;;;;;;15.38;100.00;100191.03;5041752;28;20237;-79
2022/08/10 05:12:36;;;;;;;4.97;2.67;;;;;;;15.50;100.00;100190.97;5049833;28;20264;-79
2022/08/10 05:15:12;;;;;;;4.10;3.07;;;;;;;15.64;100.00;100186.16;5048633;28;20265;-79
2022/08/10 05:17:40;;;;;;;3.67;2.90;;;;;;;15.76;100.00;100177.00;5047320;28;20240;-79
2022/08/10 05:20:26;;;;;;;3.53;2.83;;;;;;;16.03;100.00;100192.63;5048770;28;20243;-80
2022/08/10 05:22:53;;;;;;;5.20;2.90;;;;;;;16.32;100.00;100183.44;5047305;28;20221;-80
2022/08/10 05:25:20;;;;;;;4.30;2.80;;;;;;;16.60;100.00;100188.00;5047754;28;20236;-79
2022/08/10 05:27:47;;;;;;;3.37;2.60;;;;;;;16.91;100.00;100179.28;5048777;28;20586;-79
2022/08/10 05:30:19;;;;;;;3.10;2.47;;;;;;;17.25;100.00;100187.38;5046539;28;20229;-79
2022/08/10 05:32:45;;;;;;;4.37;2.40;;;;;;;17.57;100.00;100188.34;5040875;28;20227;-79
2022/08/10 05:35:26;;;;;;;4.43;2.60;;;;;;;17.89;100.00;100189.31;5047916;28;20312;-79
2022/08/10 05:37:55;;;;;;;3.90;2.30;;;;;;;18.27;100.00;100177.50;5045989;28;20654;-79
2022/08/10 05:40:41;;;;;;;4.03;2.30;;;;;;;18.75;100.00;100178.50;5049430;28;20237;-79
2022/08/10 05:43:17;;;;;;;4.33;2.37;;;;;;;19.35;100.00;100192.47;5048040;28;20241;-79
2022/08/10 05:45:45;;;;;;;3.47;2.30;;;;;;;19.81;100.00;100187.28;5048355;28;20284;-79
2022/08/10 05:48:33;;;;;;;6.50;2.60;;;;;;;20.22;100.00;100174.59;5047729;28;20288;-79
2022/08/10 05:51:20;;;;;;;4.33;2.60;;;;;;;20.52;99.07;100182.84;5033825;28;20260;-81
2022/08/10 05:53:47;;;;;;;5.47;2.30;;;;;;;20.74;94.20;100173.56;5048264;28;21011;-79
2022/08/10 05:56:30;;;;;;;4.13;2.10;;;;;;;20.85;85.19;100186.91;5046125;28;20304;-79
2022/08/10 05:59:17;;;;;;;2.77;2.23;;;;;;;20.98;85.21;100172.75;5046328;28;20254;-79
2022/08/10 06:02:04;;;;;;;3.63;2.10;;;;;;;20.75;82.31;100178.75;5045907;28;20374;-80
2022/08/10 06:04:51;;;;;;;5.40;2.10;;;;;;;20.53;83.12;100172.78;5044444;28;20229;-79
2022/08/10 06:07:18;;;;;;;2.00;1.80;;;;;;;20.69;80.35;100173.56;5045470;28;20318;-79
2022/08/10 06:09:48;;;;;;;5.60;2.27;;;;;;;20.70;79.56;100176.03;5041794;28;20251;-79
2022/08/10 06:12:26;;;;;;;3.27;2.03;;;;;;;20.80;78.49;100175.22;5046774;28;20234;-79
2022/08/10 06:15:00;;;;;;;6.27;3.13;;;;;;;20.85;75.93;100176.03;5050712;28;20276;-79
2022/08/10 06:17:32;;;;;;;5.83;2.40;;;;;;;20.84;72.83;100174.38;5048703;28;20261;-79
2022/08/10 06:19:59;;;;;;;5.27;2.67;;;;;;;20.87;70.19;100171.09;5047823;28;20332;-80
2022/08/10 06:22:27;;;;;;;3.43;2.47;;;;;;;20.98;69.54;100180.91;5048888;28;20695;-78
2022/08/10 06:24:55;;;;;;;3.90;2.20;;;;;;;21.11;69.91;100174.06;5051136;28;20239;-79
2022/08/10 06:27:42;;;;;;;2.37;2.10;;;;;;;21.07;68.21;100179.25;5050595;28;20290;-78
2022/08/10 06:30:10;;;;;;;4.43;2.23;;;;;;;21.38;66.56;100184.66;5048736;28;20790;-78
2022/08/10 06:32:50;;;;;;;3.17;2.00;;;;;;;21.64;63.48;100171.78;5050826;28;20301;-78
2022/08/10 06:35:18;;;;;;;2.37;2.17;;;;;;;21.71;63.25;100180.44;5049300;28;20309;-78
2022/08/10 06:37:44;;;;;;;2.83;2.20;;;;;;;22.11;62.49;100171.28;5049548;28;20314;-79
2022/08/10 06:40:18;;;;;;;3.97;1.90;;;;;;;22.62;61.23;100177.19;5050500;28;20233;-79
2022/08/10 06:42:49;;;;;;;4.80;2.37;;;;;;;23.02;55.86;100178.75;5051636;28;20227;-78
2022/08/10 06:45:18;;;;;;;4.63;2.27;;;;;;;23.19;56.50;100184.59;5049597;28;20778;-79
2022/08/10 06:47:48;;;;;;;3.97;2.50;;;;;;;23.40;53.92;100179.72;5048814;28;20219;-78
2022/08/10 06:50:30;;;;;;;2.30;1.90;;;;;;;23.05;53.16;100181.72;5048435;28;20236;-79
2022/08/10 06:53:18;;;;;;;5.17;2.00;;;;;;;23.21;53.79;100187.88;5048337;28;20235;-80
2022/08/10 06:55:48;;;;;;;3.42;2.28;;;;;;;23.36;54.20;100179.50;5049160;28;20320;-80
2022/08/10 06:58:25;;;;;;;4.60;2.00;;;;;;;23.26;53.48;100180.44;5046629;28;20236;-79
2022/08/10 07:00:54;;;;;;;4.10;2.10;;;;;;;23.19;54.59;100181.88;5046049;28;20318;-80
2022/08/10 07:03:25;;;;;;;4.78;2.30;;;;;;;23.38;53.85;100176.47;5048033;28;20222;-80
2022/08/10 07:05:52;;;;;;;2.90;1.90;;;;;;;23.27;54.07;100178.50;5043056;28;20312;-80
2022/08/10 07:08:22;;;;;;;4.30;2.40;;;;;;;23.51;53.17;100173.91;5043485;28;20708;-79
2022/08/10 07:10:50;;;;;;;3.50;2.15;;;;;;;23.55;53.81;100174.94;5043389;28;20234;-80
2022/08/10 07:13:18;;;;;;;3.55;2.30;;;;;;;23.63;52.24;100174.28;5045165;28;20336;-80
2022/08/10 07:16:09;;;;;;;4.15;1.95;;;;;;;23.55;53.28;100174.94;5046998;28;20245;-80
2022/08/10 07:18:37;;;;;;;3.88;2.40;;;;;;;23.27;53.38;100171.13;5046124;28;20278;-80
2022/08/10 07:21:06;;;;;;;3.83;2.28;;;;;;;23.30;54.40;100168.91;5045817;28;20708;-80
2022/08/10 07:23:33;;;;;;;4.45;2.30;;;;;;;23.18;53.94;100169.31;5043462;28;20280;-80
2022/08/10 07:26:21;;;;;;;4.40;2.30;;;;;;;23.04;54.25;100168.38;5035618;28;20255;-79
2022/08/10 07:28:49;;;;;;;3.80;2.08;;;;;;;23.12;55.36;100170.47;5042042;28;20313;-80
2022/08/10 07:31:20;;;;;;;2.60;2.22;;;;;;;23.25;55.52;100165.13;5042956;28;20257;-80
2022/08/10 07:34:08;;;;;;;4.82;2.38;;;;;;;23.27;55.33;100170.31;5042615;28;20271;-79
2022/08/10 07:36:35;;;;;;;3.15;2.42;;;;;;;23.25;53.39;100167.03;5042702;28;20279;-80
2022/08/10 07:39:03;;;;;;;2.88;2.05;;;;;;;23.05;54.66;100161.81;5045479;28;20275;-80
2022/08/10 07:41:32;;;;;;;3.13;2.60;;;;;;;22.98;54.87;100166.78;5045048;28;20228;-80
2022/08/10 07:44:03;;;;;;;4.85;2.45;;;;;;;22.94;54.91;100163.00;5042951;28;20241;-80
2022/08/10 07:46:32;;;;;;;3.97;2.03;;;;;;;23.03;54.66;100162.09;5040491;28;20242;-79
2022/08/10 07:49:03;;;;;;;3.22;2.33;;;;;;;23.01;55.44;100149.81;5038663;28;20229;-79
2022/08/10 07:51:47;;;;;;;4.03;1.88;;;;;;;23.24;52.44;100160.75;5038073;28;20287;-79
2022/08/10 07:54:22;;;;;;;6.53;1.98;;;;;;;22.92;52.70;100155.09;5040902;28;23515;-80
2022/08/10 07:56:50;;;;;;;3.00;2.45;;;;;;;23.05;53.69;100148.16;5041271;28;20697;-79
2022/08/10 07:59:22;;;;;;;3.10;2.22;;;;;;;23.19;52.59;100157.25;5047647;28;20233;-80
2022/08/10 08:01:52;;;;;;;4.13;2.00;;;;;;;23.19;52.22;100149.06;5046585;28;20597;-80
2022/08/10 08:04:21;;;;;;;4.28;2.17;;;;;;;23.37;52.63;100159.28;5045690;28;20247;-79
2022/08/10 08:06:48;;;;;;;4.18;2.28;;;;;;;23.41;50.78;100149.38;5047845;28;20259;-82
2022/08/10 08:09:17;;;;;;;3.10;1.92;;;;;;;23.63;50.48;100148.84;5049736;28;20226;-80
2022/08/10 08:11:45;;;;;;;4.38;2.33;;;;;;;23.72;50.31;100147.09;5045985;28;20593;-79
2022/08/10 08:14:13;;;;;;;4.00;2.47;;;;;;;23.75;48.97;100154.69;5044377;28;20233;-80
2022/08/10 08:16:42;;;;;;;4.40;2.40;;;;;;;;;;5047718;28;20240;-80
2022/08/10 08:19:10;;;;;;;5.22;2.28;;;;;;;23.85;50.82;100148.28;5046023;28;20234;-80
2022/08/10 08:21:57;;;;;;;4.72;2.25;;;;;;;24.02;49.14;100149.44;5044764;28;20233;-80
2022/08/10 08:24:44;;;;;;;5.65;2.10;;;;;;;24.10;46.81;100142.47;5046676;28;20225;-80
2022/08/10 08:27:18;;;;;;;4.68;2.50;;;;;;;24.10;48.49;100139.72;5046663;28;20730;-80
2022/08/10 08:29:46;;;;;;;2.60;2.00;;;;;;;23.93;47.39;100150.38;5046835;28;20234;-79
2022/08/10 08:32:28;;;;;;;5.07;2.22;;;;;;;23.96;45.96;100141.56;5047629;28;20233;-79
2022/08/10 08:34:57;;;;;;;4.90;2.00;;;;;;;24.08;45.97;100139.19;5044906;28;20232;-80
2022/08/10 08:37:26;;;;;;;7.15;2.10;;;;;;;23.99;46.40;100144.53;5049177;28;20230;-80
2022/08/10 08:40:17;;;;;;;4.13;2.40;;;;;;;23.96;47.11;100117.75;5045741;28;20227;-80
2022/08/10 08:43:03;;;;;;;4.53;2.10;;;;;;;24.08;46.90;100141.94;5049681;28;20235;-80
2022/08/10 08:46:07;;;;;;;3.05;2.17;;;;;;;23.92;45.64;100141.34;5048625;28;20241;-80
2022/08/10 08:48:43;;;;;;;6.13;2.22;;;;;;;24.11;46.94;100133.97;5047154;28;20255;-80
2022/08/10 08:51:38;;;;;;;4.03;2.25;;;;;;;24.13;45.73;100131.72;5046184;28;20221;-80
2022/08/10 08:54:43;;;;;;;2.95;2.15;;;;;;;24.29;45.69;100137.00;5047321;28;20807;-80
2022/08/10 08:57:26;;;;;;;6.68;2.33;;;;;;;24.47;45.21;100138.91;5046329;28;20254;-81
2022/08/10 09:00:17;;;;;;;2.97;2.05;;;;;;;24.47;46.81;100136.97;5046696;28;20232;-80
2022/08/10 09:03:20;;;;;;;7.10;2.38;;;;;;;24.76;46.22;100139.50;5048478;28;20240;-80
2022/08/10 09:06:20;;;;;;;3.75;2.30;;;;;;;24.47;44.23;100136.16;5046110;28;20240;-80
2022/08/10 09:08:53;;;;;;;4.93;1.95;;;;;;;24.53;44.75;100126.75;5043400;28;20233;-80
2022/08/10 09:11:38;;;;;;;3.05;2.10;;;;;;;24.76;44.33;100135.94;5047371;28;20233;-80
2022/08/10 09:14:25;;;;;;;4.32;2.10;;;;;;;24.86;44.66;100125.66;5046837;28;20262;-80
2022/08/10 09:17:04;;;;;;;3.92;2.13;;;;;;;24.74;43.53;100125.28;5047920;28;20232;-82
2022/08/10 09:19:43;;;;;;;4.00;2.20;;;;;;;24.78;43.56;100126.28;5046879;28;20233;-81
2022/08/10 09:22:20;;;;;;;5.70;2.20;;;;;;;24.96;44.45;100121.91;5031119;28;20236;-81
2022/08/10 09:24:50;;;;;;;5.05;2.25;;;;;;;24.95;43.81;100126.59;5044884;28;20797;-80
2022/08/10 09:27:35;;;;;;;3.75;2.10;;;;;;;25.18;43.14;100116.53;5045027;28;20338;-81
2022/08/10 09:30:05;;;;;;;2.60;1.80;;;;;;;25.48;43.59;100122.50;5047753;28;20316;-82
2022/08/10 09:32:39;;;;;;;4.38;1.98;;;;;;;25.61;42.39;100114.31;5046011;28;20320;-81
2022/08/10 09:35:36;;;;;;;4.40;2.00;;;;;;;25.77;41.68;100112.84;5046469;28;20623;-80
2022/08/10 09:38:32;;;;;;;2.85;2.13;;;;;;;25.81;41.28;100102.06;5032868;28;20606;-82
2022/08/10 09:41:08;;;;;;;4.95;2.28;;;;;;;25.76;41.81;100092.00;5044370;28;20233;-79
2022/08/10 09:43:54;;;;;;;3.97;2.40;;;;;;;26.10;40.58;100101.66;5047969;28;20241;-80
2022/08/10 09:46:33;;;;;;;8.93;2.20;;;;;;;26.23;39.54;100104.38;5044517;28;20244;-81
2022/08/10 09:49:21;;;;;;;4.20;1.90;;;;;;;26.07;39.48;100096.81;5047985;28;20276;-81
2022/08/10 09:52:27;;;;;;;2.10;1.90;;;;;;;26.23;38.76;100090.66;5048266;28;20253;-82
2022/08/10 09:55:04;;;;;;;3.78;1.90;;;;;;;26.28;38.29;100086.97;5051302;28;20638;-81
2022/08/10 09:57:37;;;;;;;4.30;1.75;;;;;;;26.35;37.36;100092.84;5050503;28;20270;-82
2022/08/10 10:00:15;;;;;;;3.25;1.50;;;;;;;26.03;37.33;100082.09;5049223;28;20585;-83
2022/08/10 10:02:54;;;;;;;3.53;2.00;;;;;;;26.15;37.64;100087.81;5048057;28;20248;-81
2022/08/10 10:05:39;;;;;;;2.30;1.38;;;;;;;26.24;36.74;100078.56;5051968;28;20240;-84
2022/08/10 10:08:20;;;;;;;3.47;1.50;;;;;;;26.02;35.75;100075.78;5053247;28;20233;-80
2022/08/10 10:11:02;;;;;;;1.65;1.50;;;;;;;26.43;36.16;100077.53;5051146;28;20243;-81
2022/08/10 10:13:47;;;;;;;2.75;1.77;;;;;;;26.49;35.16;100063.38;5033512;28;20232;-80
2022/08/10 10:16:49;;;;;;;4.72;2.10;;;;;;;26.55;35.11;100066.81;5052082;28;20277;-80
2022/08/10 10:19:28;;;;;;;3.38;1.80;;;;;;;26.57;37.01;100061.78;5049545;28;20240;-80
2022/08/10 10:22:12;;;;;;;3.97;1.60;;;;;;;26.63;37.12;100060.53;5050139;28;20240;-79
2022/08/10 10:24:47;;;;;;;4.07;2.00;;;;;;;26.50;35.77;100059.47;5049924;28;20648;-81
2022/08/10 10:27:36;;;;;;;2.78;1.50;;;;;;;26.51;35.33;100047.38;5051401;28;20248;-80
2022/08/10 10:30:09;;;;;;;2.22;2.03;;;;;;;26.41;36.02;100058.63;5044594;28;20729;-81
2022/08/10 10:32:57;;;;;;;1.92;1.80;;;;;;;26.78;35.15;100049.16;5043484;28;20256;-80
2022/08/10 10:35:31;;;;;;;2.30;1.73;;;;;;;26.64;35.31;100046.47;5051514;28;20247;-80
2022/08/10 10:38:01;;;;;;;2.78;1.70;;;;;;;26.72;35.11;100051.22;5047620;28;20229;-81
2022/08/10 10:41:00;;;;;;;1.90;1.63;;;;;;;26.82;36.13;100055.63;5048260;28;20229;-80
2022/08/10 10:43:41;;;;;;;3.63;1.70;;;;;;;26.73;35.66;100041.84;5050370;28;20233;-80
2022/08/10 10:46:37;;;;;;;1.73;1.60;;;;;;;26.97;34.82;100033.22;5045035;28;20286;-80
2022/08/10 10:49:41;;;;;;;2.55;1.63;;;;;;;27.16;34.98;100031.00;5046017;28;20245;-80
2022/08/10 10:52:26;;;;;;;2.08;1.70;;;;;;;27.41;33.96;100031.41;5046625;28;20732;-81
2022/08/10 10:55:49;;;;;;;2.00;1.80;;;;;;;27.57;33.19;100030.66;5050900;28;20238;-79
2022/08/10 10:58:42;;;;;;;2.47;1.55;;;;;;;27.46;33.56;100028.50;5017365;28;20280;-81
2022/08/10 11:01:21;;;;;;;5.72;2.08;;;;;;;27.13;33.06;100037.16;5017191;28;20230;-81
2022/08/10 11:04:25;;;;;;;3.67;1.65;;;;;;;27.41;33.96;100028.63;5029623;28;20312;-81
2022/08/10 11:07:14;;;;;;;3.60;1.55;;;;;;;27.56;33.30;100022.72;5048901;28;20233;-80
2022/08/10 11:09:44;;;;;;;4.68;1.85;;;;;;;27.66;33.53;100027.91;5056173;28;20333;-80
2022/08/10 11:13:02;;;;;;;2.17;1.88;;;;;;;27.85;32.06;100020.13;5053716;28;20217;-79
2022/08/10 11:16:09;;;;;;;2.20;1.77;;;;;;;27.67;31.75;100023.22;5051045;28;20245;-80
2022/08/10 11:18:58;;;;;;;2.75;1.63;;;;;;;27.69;31.58;100030.00;5049426;28;20229;-80
2022/08/10 11:21:49;;;;;;;3.63;1.60;;;;;;;27.63;31.70;100024.97;5054267;28;20228;-79
2022/08/10 11:24:24;;;;;;;3.72;1.73;;;;;;;27.78;31.56;100018.97;5047065;28;20253;-80
2022/08/10 11:27:27;;;;;;;3.03;1.65;;;;;;;28.33;31.75;100019.09;5048196;28;20245;-79
2022/08/10 11:30:17;;;;;;;2.25;1.70;;;;;;;28.35;31.67;100014.09;5047610;28;20636;-81
2022/08/10 11:32:53;;;;;;;4.32;1.75;;;;;;;27.89;32.83;100025.78;5034685;28;20230;-80
2022/08/10 11:35:38;;;;;;;4.22;1.80;;;;;;;27.96;32.15;100026.09;5040680;28;20233;-81
2022/08/10 11:38:27;;;;;;;3.00;1.88;;;;;;;28.43;31.72;100016.81;5052316;28;20221;-81
2022/08/10 11:41:09;;;;;;;4.00;1.77;;;;;;;28.79;31.89;100018.31;5049279;28;20213;-81
2022/08/10 11:44:06;;;;;;;2.00;1.70;;;;;;;28.24;31.79;100010.03;5044934;28;20322;-80
2022/08/10 11:46:35;;;;;;;5.43;1.88;;;;;;;28.36;31.63;100019.28;5034284;28;20265;-80
2022/08/10 11:49:24;;;;;;;2.22;1.92;;;;;;;28.68;31.28;100009.59;5032770;28;20228;-81
2022/08/10 11:51:54;;;;;;;3.55;1.90;;;;;;;28.97;30.60;100010.78;5025816;28;20230;-81
2022/08/10 11:54:30;;;;;;;2.85;1.85;;;;;;;29.08;30.36;100009.25;5028985;28;20324;-81
2022/08/10 11:56:59;;;;;;;2.83;1.80;;;;;;;28.93;31.42;100012.59;5026368;28;20248;-82
2022/08/10 12:02:45;;;;;;;3.72;2.00;;;;;;;28.42;31.30;100004.16;5024926;28;20258;-79
2022/08/10 12:05:18;;;;;;;2.28;1.70;;;;;;;28.63;29.65;100003.44;5034877;28;20313;-81
2022/08/10 12:07:48;;;;;;;3.80;1.85;;;;;;;28.55;30.15;99999.59;5026258;28;20689;-80